Time;durP1;ratioP1;P1;durP2;ratioP2;P2;SDS_P1;SDS_P2;PMS_P1;PMS_P2;Temp;Humidity;BMP_temperature;BMP_pressure;BME280_temperature;BME280_humidity;BME280_pressure;Samples;Min_cycle;Max_cycle;Signal;HPM_P1;HPM_P2
2022/09/23 00:01:08;;;;;;;7.40;3.53;;;9.20;91.40;;;;;;5049348;28;20028;-65
2022/09/23 00:03:40;;;;;;;5.20;3.25;;;9.10;91.60;;;;;;5046940;28;20364;-65
2022/09/23 00:06:15;;;;;;;5.45;3.47;;;9.00;91.80;;;;;;5051258;28;20353;-65
2022/09/23 00:08:43;;;;;;;5.68;3.30;;;9.00;92.20;;;;;;5044955;28;20028;-66
2022/09/23 00:11:16;;;;;;;6.28;3.88;;;9.00;92.30;;;;;;5045849;28;20098;-65
2022/09/23 00:13:44;;;;;;;5.30;3.33;;;9.00;92.20;;;;;;5046597;28;20060;-65
2022/09/23 00:16:16;;;;;;;5.85;3.60;;;9.00;92.00;;;;;;5055993;28;20029;-66
2022/09/23 00:18:48;;;;;;;6.50;3.58;;;9.00;92.20;;;;;;5056115;28;20150;-65
2022/09/23 00:21:14;;;;;;;5.78;3.13;;;9.00;92.20;;;;;;5055716;28;20025;-65
2022/09/23 00:23:41;;;;;;;6.10;3.70;;;9.00;92.60;;;;;;5046423;28;20033;-65
2022/09/23 00:26:10;;;;;;;5.60;3.50;;;8.90;92.80;;;;;;5048574;28;20052;-65
2022/09/23 00:28:36;;;;;;;6.03;3.58;;;9.00;92.70;;;;;;5055911;28;20418;-65
2022/09/23 00:31:06;;;;;;;6.78;4.05;;;9.00;92.70;;;;;;5056262;28;20033;-66
2022/09/23 00:33:32;;;;;;;10.05;4.13;;;8.90;92.90;;;;;;5054056;28;20039;-65
2022/09/23 00:36:03;;;;;;;5.88;3.42;;;8.90;93.10;;;;;;5043327;28;20037;-65
2022/09/23 00:38:29;;;;;;;5.68;3.45;;;8.80;93.10;;;;;;5049136;28;20391;-66
2022/09/23 00:40:55;;;;;;;5.38;3.28;;;8.90;93.10;;;;;;5047204;28;20112;-65
2022/09/23 00:43:57;;;;;;;10.77;3.72;;;8.80;93.50;;;;;;5044649;28;20061;-66
2022/09/23 00:46:35;;;;;;;5.72;3.80;;;8.60;94.30;;;;;;5005782;28;20531;-65
2022/09/23 00:49:14;;;;;;;7.10;3.63;;;8.50;94.50;;;;;;5043092;28;20083;-66
2022/09/23 00:51:48;;;;;;;5.70;3.40;;;8.40;94.70;;;;;;5040666;28;20592;-65
2022/09/23 00:54:14;;;;;;;6.10;3.65;;;8.30;95.30;;;;;;5045333;28;20319;-65
2022/09/23 00:56:40;;;;;;;5.05;3.38;;;8.40;94.90;;;;;;5035616;28;20036;-65
2022/09/23 00:59:09;;;;;;;5.18;3.70;;;8.30;95.00;;;;;;5046007;28;20148;-65
2022/09/23 01:01:36;;;;;;;6.20;4.15;;;8.20;95.50;;;;;;5040621;28;20029;-65
2022/09/23 01:04:03;;;;;;;5.40;3.55;;;7.90;96.30;;;;;;5044446;28;20021;-66
2022/09/23 01:06:31;;;;;;;6.03;3.67;;;7.70;96.80;;;;;;5042470;28;20082;-65
2022/09/23 01:08:57;;;;;;;5.53;3.53;;;7.50;97.30;;;;;;5040908;28;20029;-65
2022/09/23 01:11:41;;;;;;;6.25;3.70;;;7.50;97.70;;;;;;5053099;28;20112;-66
2022/09/23 01:14:35;;;;;;;6.40;3.90;;;7.30;97.90;;;;;;5043672;28;20432;-65
2022/09/23 01:17:04;;;;;;;;;;;7.20;98.00;;;;;;5050950;28;20096;-66
2022/09/23 01:19:35;;;;;;;6.43;4.10;;;7.00;98.00;;;;;;5049612;28;20294;-65
2022/09/23 01:22:11;;;;;;;6.32;4.03;;;6.80;98.00;;;;;;5050318;28;20021;-66
2022/09/23 01:25:00;;;;;;;10.60;4.57;;;6.70;98.00;;;;;;5026499;28;20084;-65
2022/09/23 01:27:47;;;;;;;6.43;3.95;;;6.60;98.00;;;;;;5048261;28;20024;-66
2022/09/23 01:30:38;;;;;;;6.57;4.15;;;6.40;98.00;;;;;;5038900;28;20028;-65
2022/09/23 01:33:10;;;;;;;8.55;4.35;;;6.40;98.00;;;;;;5041421;28;20024;-65
2022/09/23 01:36:03;;;;;;;6.25;4.38;;;6.20;98.00;;;;;;5040449;28;20060;-66
2022/09/23 01:38:36;;;;;;;7.22;4.07;;;6.10;98.00;;;;;;5039593;28;20038;-65
2022/09/23 01:41:17;;;;;;;6.93;4.28;;;6.00;98.00;;;;;;5046920;28;20093;-65
2022/09/23 01:44:08;;;;;;;6.57;4.13;;;5.90;98.00;;;;;;5042869;28;20021;-65
2022/09/23 01:46:50;;;;;;;7.07;4.30;;;5.80;97.70;;;;;;5042075;28;20036;-65
2022/09/23 01:49:36;;;;;;;7.82;4.78;;;5.80;97.30;;;;;;5039676;28;20029;-65
2022/09/23 01:52:29;;;;;;;8.52;4.93;;;5.70;96.80;;;;;;5041053;28;20029;-66
2022/09/23 01:55:07;;;;;;;6.18;4.35;;;5.60;96.00;;;;;;5037382;28;21783;-65
2022/09/23 01:57:39;;;;;;;7.18;4.80;;;5.60;96.10;;;;;;5051383;28;20055;-65
2022/09/23 02:00:10;;;;;;;7.70;4.90;;;5.70;96.00;;;;;;5045182;28;20107;-65
2022/09/23 02:02:48;;;;;;;8.15;4.57;;;5.80;96.70;;;;;;5038590;28;20037;-65
2022/09/23 02:05:33;;;;;;;6.95;4.53;;;5.80;96.90;;;;;;5038652;28;20030;-65
2022/09/23 02:08:09;;;;;;;6.47;4.78;;;5.80;96.20;;;;;;5042291;28;20049;-65
2022/09/23 02:10:57;;;;;;;6.88;4.47;;;6.00;96.90;;;;;;5037032;28;20393;-65
2022/09/23 02:13:52;;;;;;;9.70;4.68;;;6.30;98.00;;;;;;5052878;28;20033;-64
2022/09/23 02:16:37;;;;;;;7.20;4.55;;;6.40;98.00;;;;;;5050660;28;20041;-65
2022/09/23 02:19:12;;;;;;;7.78;4.95;;;6.40;98.00;;;;;;5044784;28;20021;-65
2022/09/23 02:21:43;;;;;;;6.90;4.75;;;6.20;98.00;;;;;;5047181;28;20296;-64
2022/09/23 02:24:24;;;;;;;7.28;4.88;;;6.40;98.00;;;;;;5035716;28;20044;-67
2022/09/23 02:27:28;;;;;;;8.55;4.43;;;6.50;98.00;;;;;;5042896;28;20029;-66
2022/09/23 02:30:12;;;;;;;8.13;4.57;;;6.60;98.00;;;;;;5038181;28;20033;-65
2022/09/23 02:33:28;;;;;;;6.57;4.32;;;6.60;98.00;;;;;;5040838;28;20322;-66
2022/09/23 02:36:04;;;;;;;7.53;4.53;;;6.80;98.00;;;;;;5017194;28;20068;-66
2022/09/23 02:38:39;;;;;;;6.47;4.40;;;6.90;98.00;;;;;;5035033;28;20044;-64
2022/09/23 02:41:29;;;;;;;6.50;4.32;;;7.00;98.00;;;;;;5046281;28;20032;-64
2022/09/23 02:44:11;;;;;;;8.00;3.80;;;7.00;98.00;;;;;;5050947;28;20060;-66
2022/09/23 02:46:37;;;;;;;7.93;4.18;;;6.80;98.00;;;;;;5048412;28;20410;-66
2022/09/23 02:49:12;;;;;;;6.18;3.95;;;6.70;98.00;;;;;;5051030;28;20029;-65
2022/09/23 02:51:39;;;;;;;6.72;3.78;;;6.40;98.00;;;;;;5055791;28;20079;-65
2022/09/23 02:54:09;;;;;;;6.20;4.30;;;6.20;98.00;;;;;;5048931;28;20024;-66
2022/09/23 02:56:36;;;;;;;6.78;5.10;;;6.10;98.00;;;;;;5050246;28;20044;-65
2022/09/23 02:59:18;;;;;;;7.38;4.75;;;5.90;98.00;;;;;;5045869;28;20037;-65
2022/09/23 03:02:03;;;;;;;6.72;4.53;;;5.70;98.00;;;;;;5053822;28;20098;-65
2022/09/23 03:04:50;;;;;;;6.95;4.40;;;5.60;97.20;;;;;;5045722;28;20034;-65
2022/09/23 03:07:42;;;;;;;6.28;3.97;;;5.40;97.20;;;;;;5049565;28;20085;-65
2022/09/23 03:10:40;;;;;;;6.65;4.47;;;5.20;96.40;;;;;;5013053;28;20480;-65
2022/09/23 03:13:16;;;;;;;8.82;4.45;;;5.20;95.40;;;;;;5016816;28;20033;-65
2022/09/23 03:15:51;;;;;;;7.10;4.70;;;5.30;94.30;;;;;;5049475;28;20090;-65
2022/09/23 03:18:36;;;;;;;6.90;5.07;;;5.50;94.60;;;;;;5058298;28;20025;-65
2022/09/23 03:21:21;;;;;;;9.20;5.70;;;5.60;95.70;;;;;;5052721;28;20025;-65
2022/09/23 03:23:47;;;;;;;9.63;5.40;;;5.50;96.00;;;;;;5042718;28;20143;-65
2022/09/23 03:26:30;;;;;;;6.78;4.82;;;5.50;94.70;;;;;;5045193;28;20025;-65
2022/09/23 03:28:57;;;;;;;6.88;4.95;;;5.70;95.90;;;;;;5046634;28;20032;-65
2022/09/23 03:31:23;;;;;;;7.78;4.40;;;5.70;96.80;;;;;;5049989;28;20491;-65
2022/09/23 03:33:54;;;;;;;6.18;4.50;;;5.70;96.40;;;;;;5050446;28;20354;-65
2022/09/23 03:36:50;;;;;;;9.65;4.85;;;5.60;96.50;;;;;;5053967;28;20119;-65
2022/09/23 03:39:32;;;;;;;7.65;5.07;;;5.60;96.00;;;;;;5038690;28;21833;-65
2022/09/23 03:42:03;;;;;;;9.77;5.30;;;5.60;96.30;;;;;;5049935;28;20021;-66
2022/09/23 03:44:35;;;;;;;7.40;5.70;;;5.50;95.80;;;;;;5052939;28;20017;-65
2022/09/23 03:47:02;;;;;;;8.02;5.85;;;5.60;95.70;;;;;;5048890;28;20017;-65
2022/09/23 03:49:36;;;;;;;11.20;5.82;;;5.70;96.20;;;;;;5049360;28;20032;-65
2022/09/23 03:52:02;;;;;;;8.10;5.78;;;5.60;96.30;;;;;;5029785;28;20065;-65
2022/09/23 03:54:28;;;;;;;6.70;4.93;;;5.60;96.30;;;;;;5051704;28;20418;-65
2022/09/23 03:56:58;;;;;;;10.13;6.20;;;5.60;95.70;;;;;;5051854;28;20090;-65
2022/09/23 03:59:24;;;;;;;7.63;5.35;;;5.60;95.90;;;;;;5043020;28;20033;-66
2022/09/23 04:01:50;;;;;;;8.50;5.30;;;5.70;96.10;;;;;;5053293;28;20032;-64
2022/09/23 04:04:16;;;;;;;7.32;4.97;;;5.70;96.30;;;;;;5053303;28;20021;-64
2022/09/23 04:06:42;;;;;;;5.68;4.20;;;5.80;96.80;;;;;;5055028;28;20025;-65
2022/09/23 04:09:08;;;;;;;8.50;4.63;;;5.90;97.70;;;;;;5048567;28;20067;-65
2022/09/23 04:11:34;;;;;;;7.15;4.30;;;6.00;98.00;;;;;;5052433;28;20051;-65
2022/09/23 04:14:00;;;;;;;8.32;5.15;;;6.00;98.00;;;;;;5051568;28;20028;-66
2022/09/23 04:16:30;;;;;;;6.28;4.53;;;6.10;98.00;;;;;;5052524;28;20291;-66
2022/09/23 04:18:55;;;;;;;8.48;4.63;;;6.10;98.00;;;;;;5050076;28;20049;-65
2022/09/23 04:21:21;;;;;;;7.65;4.60;;;6.10;98.00;;;;;;5050890;28;20040;-65
2022/09/23 04:23:47;;;;;;;8.82;4.75;;;6.00;98.00;;;;;;5048238;28;20329;-65
2022/09/23 04:26:13;;;;;;;6.78;4.55;;;5.90;98.00;;;;;;5052021;28;20024;-65
2022/09/23 04:28:39;;;;;;;8.05;5.60;;;5.80;98.00;;;;;;5052343;28;20029;-65
2022/09/23 04:31:06;;;;;;;6.97;4.32;;;5.70;97.50;;;;;;5047435;28;20056;-65
2022/09/23 04:33:32;;;;;;;8.75;5.00;;;5.70;97.20;;;;;;5055198;28;20032;-65
2022/09/23 04:35:58;;;;;;;8.48;5.75;;;5.70;97.10;;;;;;5053353;28;20041;-65
2022/09/23 04:38:26;;;;;;;8.95;5.47;;;5.80;97.40;;;;;;5052572;28;20460;-65
2022/09/23 04:40:52;;;;;;;8.63;5.68;;;5.80;97.70;;;;;;5051412;28;20040;-65
2022/09/23 04:43:21;;;;;;;7.45;5.45;;;5.80;97.60;;;;;;5055158;28;20025;-65
2022/09/23 04:45:55;;;;;;;9.27;5.30;;;5.80;97.60;;;;;;5048749;28;20109;-65
2022/09/23 04:48:21;;;;;;;8.48;6.00;;;5.70;97.60;;;;;;5048684;28;20036;-66
2022/09/23 04:50:47;;;;;;;6.72;5.32;;;5.70;97.20;;;;;;5054199;28;20017;-65
2022/09/23 04:53:20;;;;;;;7.95;6.00;;;5.70;97.00;;;;;;5044441;28;20037;-66
2022/09/23 04:55:46;;;;;;;9.57;6.22;;;5.70;96.90;;;;;;5037350;28;20025;-65
2022/09/23 04:58:11;;;;;;;8.32;5.43;;;5.70;97.20;;;;;;5044488;28;20056;-65
2022/09/23 05:00:37;;;;;;;9.18;5.90;;;5.80;97.30;;;;;;5049080;28;20056;-65
2022/09/23 05:03:06;;;;;;;7.90;6.13;;;5.80;97.40;;;;;;5051850;28;20021;-65
2022/09/23 05:05:31;;;;;;;9.57;6.35;;;5.70;97.60;;;;;;5053262;28;20024;-65
2022/09/23 05:07:59;;;;;;;8.15;5.78;;;5.70;97.30;;;;;;5052196;28;20036;-64
2022/09/23 05:10:28;;;;;;;9.35;6.47;;;5.60;97.10;;;;;;5052149;28;20028;-64
2022/09/23 05:12:55;;;;;;;8.25;5.95;;;5.60;96.50;;;;;;5050028;28;20099;-64
2022/09/23 05:15:21;;;;;;;9.15;5.65;;;5.50;96.50;;;;;;5051038;28;20025;-64
2022/09/23 05:17:46;;;;;;;10.50;5.78;;;5.50;96.30;;;;;;5052127;28;20116;-67
2022/09/23 05:20:12;;;;;;;9.65;6.20;;;5.50;96.00;;;;;;5049903;28;20656;-67
2022/09/23 05:22:38;;;;;;;10.65;6.45;;;5.40;96.00;;;;;;5046744;28;20040;-66
2022/09/23 05:25:03;;;;;;;9.63;5.93;;;5.50;95.80;;;;;;5051314;28;20025;-66
2022/09/23 05:27:32;;;;;;;9.68;6.38;;;5.50;96.30;;;;;;5049631;28;20055;-66
2022/09/23 05:29:58;;;;;;;11.98;7.30;;;5.60;96.30;;;;;;5053764;28;20029;-66
2022/09/23 05:32:24;;;;;;;10.25;6.35;;;5.60;96.20;;;;;;5050434;28;20031;-66
2022/09/23 05:34:50;;;;;;;11.30;7.05;;;5.60;96.00;;;;;;5050460;28;20091;-65
2022/09/23 05:37:15;;;;;;;10.88;6.32;;;5.70;96.50;;;;;;5053463;28;20052;-65
2022/09/23 05:39:41;;;;;;;9.07;6.57;;;5.80;97.00;;;;;;5053517;28;20037;-65
2022/09/23 05:42:11;;;;;;;9.90;7.13;;;5.90;97.50;;;;;;5040570;28;20485;-66
2022/09/23 05:44:38;;;;;;;8.52;6.03;;;6.00;98.00;;;;;;5046318;28;20032;-66
2022/09/23 05:47:03;;;;;;;8.93;5.68;;;6.20;98.00;;;;;;5042142;28;20059;-65
2022/09/23 05:49:29;;;;;;;8.88;5.90;;;6.20;98.00;;;;;;5053798;28;20033;-65
2022/09/23 05:51:55;;;;;;;18.02;13.23;;;6.20;98.00;;;;;;5044695;28;20373;-65
2022/09/23 05:54:21;;;;;;;13.75;6.15;;;6.30;98.00;;;;;;5047052;28;20032;-65
2022/09/23 05:56:49;;;;;;;8.23;5.53;;;6.40;98.00;;;;;;5051257;28;20029;-65
2022/09/23 05:59:15;;;;;;;9.18;4.80;;;6.60;98.00;;;;;;5043590;28;20152;-64
2022/09/23 06:01:43;;;;;;;8.45;5.57;;;6.70;98.00;;;;;;5039598;28;20116;-65
2022/09/23 06:04:11;;;;;;;11.55;7.32;;;6.80;98.00;;;;;;5055617;28;20029;-65
2022/09/23 06:06:40;;;;;;;7.78;4.70;;;6.80;98.00;;;;;;5050976;28;20025;-65
2022/09/23 06:09:08;;;;;;;15.70;9.75;;;6.90;98.00;;;;;;5043484;28;20035;-65
2022/09/23 06:11:34;;;;;;;16.70;10.02;;;6.90;98.00;;;;;;5053154;28;20855;-65
2022/09/23 06:14:01;;;;;;;11.77;8.38;;;7.00;98.00;;;;;;5055520;28;20334;-65
2022/09/23 06:16:29;;;;;;;11.85;6.80;;;7.20;98.00;;;;;;5052691;28;20076;-65
2022/09/23 06:18:54;;;;;;;7.43;4.85;;;7.30;98.00;;;;;;5059328;28;20120;-65
2022/09/23 06:21:20;;;;;;;5.80;3.67;;;7.40;98.00;;;;;;5055462;28;20100;-66
2022/09/23 06:23:46;;;;;;;7.35;3.92;;;7.60;98.00;;;;;;5054963;28;20024;-65
2022/09/23 06:26:14;;;;;;;5.13;3.30;;;7.80;98.00;;;;;;5058719;28;20029;-65
2022/09/23 06:28:42;;;;;;;6.43;2.88;;;7.90;98.00;;;;;;5056717;28;20413;-65
2022/09/23 06:31:14;;;;;;;5.55;3.10;;;8.10;98.00;;;;;;5056694;28;20406;-65
2022/09/23 06:33:41;;;;;;;5.60;2.75;;;8.40;98.00;;;;;;5057385;28;20027;-65
2022/09/23 06:36:07;;;;;;;5.57;3.10;;;8.60;98.00;;;;;;5057621;28;20517;-65
2022/09/23 06:38:33;;;;;;;10.05;4.75;;;8.70;98.00;;;;;;5058153;28;20058;-65
2022/09/23 06:41:01;;;;;;;16.92;11.52;;;8.80;98.00;;;;;;5051919;28;20048;-65
2022/09/23 06:43:28;;;;;;;17.85;11.60;;;8.90;98.00;;;;;;5058826;28;20013;-65
2022/09/23 06:45:59;;;;;;;19.90;11.35;;;9.00;98.00;;;;;;5054892;28;20021;-65
2022/09/23 06:48:28;;;;;;;9.50;5.53;;;9.20;98.00;;;;;;5049495;28;20036;-65
2022/09/23 06:50:58;;;;;;;8.52;4.47;;;9.40;98.00;;;;;;5058242;28;20029;-65
2022/09/23 06:53:24;;;;;;;6.85;3.83;;;9.70;98.00;;;;;;5049332;28;20033;-65
2022/09/23 06:56:07;;;;;;;7.70;3.05;;;9.90;97.80;;;;;;5048537;28;20013;-65
2022/09/23 06:58:34;;;;;;;4.93;2.95;;;10.20;96.90;;;;;;5049728;28;20033;-65
2022/09/23 07:01:06;;;;;;;7.68;3.20;;;10.40;96.50;;;;;;5050648;28;20045;-65
2022/09/23 07:03:34;;;;;;;4.75;2.50;;;10.70;96.00;;;;;;5053880;28;20054;-65
2022/09/23 07:06:00;;;;;;;5.15;3.00;;;10.90;95.10;;;;;;5053879;28;20032;-65
2022/09/23 07:08:27;;;;;;;5.95;3.20;;;11.20;94.80;;;;;;5046157;28;20029;-65
2022/09/23 07:10:55;;;;;;;5.57;2.70;;;11.20;94.40;;;;;;5040996;28;20025;-65
2022/09/23 07:13:22;;;;;;;4.78;2.78;;;11.40;93.80;;;;;;5058615;28;20069;-66
2022/09/23 07:15:52;;;;;;;5.32;2.45;;;11.40;93.30;;;;;;5057744;28;20021;-65
2022/09/23 07:18:19;;;;;;;4.93;2.50;;;11.60;94.00;;;;;;5057971;28;20033;-65
2022/09/23 07:20:47;;;;;;;5.40;2.55;;;12.00;93.40;;;;;;5057041;28;20068;-65
2022/09/23 07:23:13;;;;;;;10.25;6.60;;;12.20;92.60;;;;;;5057609;28;20033;-65
2022/09/23 07:25:39;;;;;;;12.85;6.80;;;12.40;91.90;;;;;;5055277;28;20029;-65
2022/09/23 07:28:05;;;;;;;13.40;6.78;;;12.70;91.20;;;;;;5053016;28;20460;-65
2022/09/23 07:30:35;;;;;;;11.13;6.78;;;12.90;90.20;;;;;;5057163;28;20418;-65
2022/09/23 07:33:00;;;;;;;13.18;7.80;;;13.30;89.70;;;;;;5054977;28;20034;-65
2022/09/23 07:35:26;;;;;;;11.63;7.13;;;13.60;89.40;;;;;;5057957;28;20494;-64
2022/09/23 07:37:52;;;;;;;11.05;6.88;;;14.10;88.60;;;;;;5057049;28;20025;-66
2022/09/23 07:40:18;;;;;;;19.63;8.82;;;14.30;87.40;;;;;;5056776;28;20367;-65
2022/09/23 07:42:44;;;;;;;14.80;7.45;;;14.60;86.70;;;;;;5056387;28;21857;-65
2022/09/23 07:45:10;;;;;;;14.55;6.75;;;14.80;84.90;;;;;;5058056;28;20052;-64
2022/09/23 07:47:38;;;;;;;10.23;4.85;;;15.10;84.10;;;;;;5057218;28;20028;-64
2022/09/23 07:50:05;;;;;;;13.20;7.40;;;15.40;84.10;;;;;;5057960;28;20373;-65
2022/09/23 07:52:30;;;;;;;13.40;7.72;;;15.80;83.00;;;;;;5057160;28;20032;-65
2022/09/23 07:54:56;;;;;;;14.93;7.00;;;16.00;82.30;;;;;;5056321;28;20028;-65
2022/09/23 07:57:22;;;;;;;12.25;7.47;;;16.20;81.40;;;;;;5056077;28;20032;-65
2022/09/23 07:59:47;;;;;;;11.73;6.20;;;16.30;81.90;;;;;;5057534;28;20025;-65
2022/09/23 08:02:16;;;;;;;12.18;5.47;;;16.20;81.30;;;;;;5055929;28;20035;-64
2022/09/23 08:04:41;;;;;;;8.52;5.00;;;16.20;82.60;;;;;;5040578;28;20449;-64
2022/09/23 08:07:08;;;;;;;8.02;4.50;;;16.30;82.10;;;;;;5052700;28;20029;-68
2022/09/23 08:09:40;;;;;;;9.02;4.53;;;16.10;82.40;;;;;;5050030;28;20025;-63
2022/09/23 08:12:07;;;;;;;8.00;4.20;;;16.00;82.50;;;;;;5057214;28;20421;-65
2022/09/23 08:14:32;;;;;;;7.90;4.28;;;15.90;83.10;;;;;;5054937;28;20036;-67
2022/09/23 08:16:58;;;;;;;7.90;4.25;;;16.00;83.20;;;;;;5055853;28;20029;-66
2022/09/23 08:19:24;;;;;;;10.68;4.30;;;16.40;83.00;;;;;;5057242;28;20029;-65
2022/09/23 08:21:51;;;;;;;14.95;9.73;;;16.50;81.50;;;;;;5057393;28;20025;-65
2022/09/23 08:24:22;;;;;;;7.20;4.35;;;16.70;81.50;;;;;;5055207;28;20017;-65
2022/09/23 08:26:49;;;;;;;10.60;4.55;;;17.00;80.00;;;;;;5042027;28;20021;-65
2022/09/23 08:29:16;;;;;;;8.65;4.45;;;16.80;79.90;;;;;;5038509;28;20602;-65
2022/09/23 08:31:42;;;;;;;8.18;4.93;;;16.60;80.90;;;;;;5052874;28;20029;-63
2022/09/23 08:34:09;;;;;;;10.40;5.78;;;16.50;81.50;;;;;;5042129;28;20086;-65
2022/09/23 08:36:35;;;;;;;10.45;5.00;;;16.30;82.30;;;;;;5055512;28;20037;-65
2022/09/23 08:39:00;;;;;;;8.88;4.68;;;16.30;82.60;;;;;;5053833;28;20025;-66
2022/09/23 08:41:41;;;;;;;9.38;4.45;;;16.00;82.30;;;;;;5042935;28;20159;-65
2022/09/23 08:44:31;;;;;;;7.18;4.50;;;16.00;83.50;;;;;;5045447;28;20327;-65
2022/09/23 08:47:22;;;;;;;10.40;4.82;;;16.30;82.30;;;;;;5036326;28;20044;-65
2022/09/23 08:50:09;;;;;;;9.52;5.00;;;16.30;81.90;;;;;;5048833;28;20025;-65
2022/09/23 08:52:59;;;;;;;8.75;4.70;;;16.30;82.20;;;;;;5038344;28;20033;-65
2022/09/23 08:55:59;;;;;;;11.10;5.95;;;16.50;82.20;;;;;;5046841;28;20025;-65
2022/09/23 08:58:44;;;;;;;14.73;6.32;;;16.40;82.10;;;;;;4996283;28;20044;-65
2022/09/23 09:01:17;;;;;;;;;;;16.20;82.30;;;;;;5036247;28;20060;-64
2022/09/23 09:04:01;;;;;;;12.77;7.28;;;16.00;82.10;;;;;;5040901;28;20410;-65
2022/09/23 09:06:38;;;;;;;11.13;5.78;;;15.90;82.40;;;;;;5038380;28;20028;-65
2022/09/23 09:09:11;;;;;;;8.65;5.63;;;15.90;82.50;;;;;;5035294;28;20130;-64
2022/09/23 09:11:42;;;;;;;10.20;6.07;;;15.90;82.70;;;;;;5034745;28;20116;-64
2022/09/23 09:14:49;;;;;;;17.65;9.18;;;16.20;82.30;;;;;;5040387;28;20021;-64
2022/09/23 09:17:34;;;;;;;15.20;8.02;;;16.60;80.80;;;;;;5039534;28;20095;-65
2022/09/23 09:20:22;;;;;;;18.05;8.05;;;17.10;80.00;;;;;;5036552;28;20106;-64
2022/09/23 09:22:59;;;;;;;10.00;5.43;;;17.40;79.20;;;;;;5037360;28;20326;-65
2022/09/23 09:25:27;;;;;;;9.18;5.28;;;17.90;77.60;;;;;;5034856;28;20035;-65
2022/09/23 09:27:54;;;;;;;10.73;5.30;;;18.30;77.60;;;;;;5040004;28;20017;-65
2022/09/23 09:30:21;;;;;;;10.23;5.05;;;19.00;75.80;;;;;;5051227;28;20086;-65
2022/09/23 09:33:16;;;;;;;9.80;5.18;;;19.40;73.90;;;;;;5048371;28;20037;-64
2022/09/23 09:36:01;;;;;;;;;;;19.60;73.70;;;;;;5047266;28;21833;-64
2022/09/23 09:38:27;;;;;;;14.80;6.30;;;19.70;73.20;;;;;;5039698;28;19956;-64
2022/09/23 09:40:54;;;;;;;10.10;5.18;;;20.10;74.20;;;;;;5048409;28;20063;-65
2022/09/23 09:43:22;;;;;;;9.85;5.60;;;20.50;72.70;;;;;;5047192;28;20102;-64
2022/09/23 09:45:53;;;;;;;7.55;4.07;;;21.10;71.30;;;;;;5053144;28;20638;-65
2022/09/23 09:48:31;;;;;;;8.85;5.78;;;21.60;70.50;;;;;;5044924;28;20037;-64
2022/09/23 09:51:17;;;;;;;7.13;3.92;;;21.60;69.70;;;;;;5051744;28;20074;-64
2022/09/23 09:53:43;;;;;;;8.80;4.35;;;21.40;67.50;;;;;;5049168;28;20108;-64
2022/09/23 09:56:16;;;;;;;6.35;3.72;;;21.10;67.70;;;;;;5050758;28;20104;-65
2022/09/23 09:58:50;;;;;;;6.13;3.50;;;20.20;69.40;;;;;;5050320;28;20025;-65
2022/09/23 10:01:36;;;;;;;7.45;3.75;;;19.30;71.40;;;;;;5046357;28;20026;-64
2022/09/23 10:04:28;;;;;;;10.75;3.75;;;19.10;73.60;;;;;;5054152;28;20036;-65
2022/09/23 10:07:27;;;;;;;7.80;3.58;;;18.60;73.90;;;;;;5053070;28;20430;-65
2022/09/23 10:09:53;;;;;;;7.50;4.18;;;18.70;75.30;;;;;;5033934;28;20132;-64
2022/09/23 10:12:21;;;;;;;7.13;3.75;;;18.30;74.80;;;;;;5053570;28;20434;-65
2022/09/23 10:14:54;;;;;;;6.55;3.45;;;18.20;76.10;;;;;;5052036;28;20060;-65
2022/09/23 10:17:33;;;;;;;5.40;3.30;;;19.00;75.10;;;;;;5045121;28;20039;-65
2022/09/23 10:20:16;;;;;;;8.20;3.35;;;19.50;73.60;;;;;;5050808;28;20029;-64
2022/09/23 10:22:42;;;;;;;6.50;3.88;;;20.10;73.20;;;;;;5052881;28;20029;-65
2022/09/23 10:25:28;;;;;;;10.00;3.45;;;20.50;70.70;;;;;;5053814;28;20322;-65
2022/09/23 10:27:54;;;;;;;9.80;6.53;;;21.10;69.20;;;;;;5054919;28;20063;-66
2022/09/23 10:30:25;;;;;;;10.23;4.05;;;21.50;68.90;;;;;;5040521;28;20025;-65
2022/09/23 10:32:53;;;;;;;8.45;4.75;;;21.50;68.90;;;;;;5052618;28;20115;-65
2022/09/23 10:35:22;;;;;;;9.70;4.50;;;22.20;68.30;;;;;;5054557;28;20045;-65
2022/09/23 10:37:56;;;;;;;7.40;3.60;;;22.10;67.20;;;;;;5053046;28;20037;-65
2022/09/23 10:46:37;;;;;;;9.63;5.00;;;21.10;69.00;;;;;;5042826;28;20032;-64
2022/09/23 10:49:08;;;;;;;8.13;3.80;;;21.40;68.80;;;;;;5054640;28;20035;-65
2022/09/23 10:51:48;;;;;;;9.38;4.00;;;22.10;69.30;;;;;;5053211;28;20064;-65
2022/09/23 10:54:31;;;;;;;6.93;4.28;;;22.20;67.30;;;;;;5053383;28;20029;-64
2022/09/23 10:57:36;;;;;;;7.50;4.40;;;22.10;67.00;;;;;;5043144;28;20033;-64
2022/09/23 11:00:01;;;;;;;9.32;4.68;;;22.60;66.40;;;;;;5054038;28;20036;-64
2022/09/23 11:02:30;;;;;;;9.35;4.93;;;22.70;65.80;;;;;;5055538;28;20053;-64
2022/09/23 11:05:19;;;;;;;10.60;4.53;;;22.20;66.90;;;;;;5046760;28;20315;-64
2022/09/23 11:08:05;;;;;;;7.78;4.00;;;21.60;67.00;;;;;;5038843;28;20037;-67
2022/09/23 11:10:51;;;;;;;9.45;4.50;;;21.60;67.20;;;;;;5055384;28;20337;-64
2022/09/23 11:13:43;;;;;;;7.25;3.58;;;21.60;66.20;;;;;;5054984;28;20021;-65
2022/09/23 11:16:46;;;;;;;8.27;4.15;;;21.80;67.30;;;;;;5057165;28;20040;-65
2022/09/23 11:20:08;;;;;;;8.05;3.88;;;22.00;66.50;;;;;;5057172;28;20342;-64
2022/09/23 11:23:06;;;;;;;7.90;4.07;;;22.40;65.20;;;;;;5003594;28;20316;-66
2022/09/23 11:25:53;;;;;;;7.32;3.70;;;22.60;65.00;;;;;;5056343;28;20021;-65
2022/09/23 11:28:36;;;;;;;7.55;4.53;;;23.00;64.30;;;;;;5038371;28;20061;-65
2022/09/23 11:31:22;;;;;;;6.85;3.45;;;22.90;63.60;;;;;;5042521;28;20037;-65
2022/09/23 11:34:13;;;;;;;8.80;4.50;;;23.10;65.60;;;;;;5047665;28;20044;-66
2022/09/23 11:36:55;;;;;;;7.35;4.00;;;23.30;65.00;;;;;;5056698;28;20029;-65
2022/09/23 11:39:52;;;;;;;10.52;4.47;;;23.70;64.50;;;;;;5055139;28;20057;-65
2022/09/23 11:42:26;;;;;;;8.75;3.80;;;23.70;64.00;;;;;;5056298;28;20039;-64
2022/09/23 11:45:17;;;;;;;6.25;3.70;;;23.70;63.00;;;;;;5048435;28;20422;-65
2022/09/23 11:47:50;;;;;;;7.68;4.28;;;23.90;62.60;;;;;;5048726;28;20040;-65
2022/09/23 11:50:31;;;;;;;7.07;3.30;;;23.10;64.70;;;;;;5038185;28;20021;-65
2022/09/23 11:53:22;;;;;;;8.95;4.30;;;23.60;65.00;;;;;;5049891;28;20809;-65
2022/09/23 11:56:04;;;;;;;5.88;3.33;;;24.10;62.60;;;;;;5039646;28;20072;-65
2022/09/23 11:58:36;;;;;;;7.70;4.10;;;24.10;63.20;;;;;;5050681;28;20029;-65
2022/09/23 12:01:31;;;;;;;7.57;3.80;;;24.20;63.30;;;;;;5055227;28;20032;-65
2022/09/23 12:04:04;;;;;;;;;;;23.70;61.90;;;;;;5045935;28;20036;-65
2022/09/23 12:06:41;;;;;;;7.43;3.58;;;23.30;63.00;;;;;;5046958;28;20397;-65
2022/09/23 12:09:23;;;;;;;6.13;3.65;;;23.10;63.70;;;;;;5047787;28;20042;-64
2022/09/23 12:11:49;;;;;;;8.90;3.67;;;22.50;65.20;;;;;;5052321;28;20102;-65
2022/09/23 12:14:37;;;;;;;5.22;3.95;;;22.20;66.10;;;;;;5037534;28;20458;-64
2022/09/23 12:17:09;;;;;;;5.28;3.63;;;22.10;66.40;;;;;;5054064;28;20051;-64
2022/09/23 12:19:55;;;;;;;7.30;3.20;;;21.90;67.20;;;;;;5046403;28;20436;-65
2022/09/23 12:22:46;;;;;;;8.98;3.13;;;21.90;65.50;;;;;;5044094;28;20458;-65
2022/09/23 12:25:24;;;;;;;4.90;2.80;;;21.80;66.30;;;;;;5055055;28;20029;-64
2022/09/23 12:27:53;;;;;;;6.60;3.20;;;21.90;67.40;;;;;;5057208;28;20036;-65
2022/09/23 12:30:23;;;;;;;7.45;3.15;;;22.30;66.50;;;;;;5056413;28;20506;-65
2022/09/23 12:32:54;;;;;;;5.60;2.83;;;22.80;66.50;;;;;;5057047;28;20089;-65
2022/09/23 12:35:25;;;;;;;6.35;2.85;;;22.60;65.70;;;;;;5056287;28;20102;-65
2022/09/23 12:37:51;;;;;;;8.00;3.10;;;22.00;65.00;;;;;;5037142;28;20079;-65
2022/09/23 12:40:29;;;;;;;7.82;3.00;;;21.30;64.90;;;;;;5051480;28;20056;-65
2022/09/23 12:42:54;;;;;;;7.05;2.75;;;20.90;66.60;;;;;;5056881;28;20433;-65
2022/09/23 12:45:36;;;;;;;5.80;2.67;;;21.00;67.00;;;;;;5026138;28;20029;-64
2022/09/23 12:48:25;;;;;;;7.65;2.65;;;21.40;66.70;;;;;;5038183;28;20025;-65
2022/09/23 12:51:12;;;;;;;7.57;3.00;;;21.30;64.90;;;;;;5054978;28;20274;-65
2022/09/23 12:53:49;;;;;;;5.18;2.70;;;21.20;64.30;;;;;;5052684;28;20063;-71
2022/09/23 12:56:17;;;;;;;6.70;3.00;;;20.90;65.90;;;;;;5036781;28;20411;-64
2022/09/23 12:58:43;;;;;;;7.13;2.30;;;21.00;65.50;;;;;;5049161;28;20357;-65
2022/09/23 13:01:35;;;;;;;8.40;2.97;;;21.20;66.00;;;;;;5056601;28;20028;-64
2022/09/23 13:07:07;;;;;;;6.13;2.53;;;21.00;66.40;;;;;;5055873;28;20360;-64
2022/09/23 13:09:40;;;;;;;5.40;2.80;;;21.00;67.10;;;;;;5055234;28;20033;-64
2022/09/23 13:12:15;;;;;;;6.13;2.72;;;21.10;65.70;;;;;;5054908;28;20024;-64
2022/09/23 13:14:47;;;;;;;11.68;3.70;;;21.20;66.50;;;;;;5055292;28;20043;-64
2022/09/23 13:17:27;;;;;;;7.15;2.78;;;21.20;66.50;;;;;;5055519;28;20063;-64
2022/09/23 13:20:35;;;;;;;9.90;2.83;;;21.20;65.40;;;;;;5056097;28;20024;-65
2022/09/23 13:23:30;;;;;;;5.45;2.33;;;21.90;66.10;;;;;;5054082;28;20029;-65
2022/09/23 13:25:59;;;;;;;5.05;2.15;;;22.20;64.80;;;;;;5047344;28;20445;-64
2022/09/23 13:28:36;;;;;;;6.45;2.60;;;22.00;64.10;;;;;;5055316;28;20025;-65
2022/09/23 13:31:12;;;;;;;5.68;2.55;;;21.90;65.20;;;;;;5055277;28;20487;-65
2022/09/23 13:33:43;;;;;;;5.97;2.60;;;22.00;63.60;;;;;;5054617;28;20373;-64
2022/09/23 13:36:14;;;;;;;6.20;2.67;;;21.90;62.80;;;;;;5051700;28;20041;-64